METAR Data
IDs: Format: Raw Decoded Include TAF

Data at: 0500 UTC 03 Jul 2022

METAR for:KHVS (Hartsville Rgnl, SC, US)
Text:KHVS 030455Z AUTO 00000KT 10SM BKN048 23/21 A3000 RMK AO2
Temperature: 23.0°C ( 73°F)
Dewpoint: 21.0°C ( 70°F) [RH = 89%]
Pressure (altimeter):30.00 inches Hg (1016.0 mb)
Winds:calm
Visibility:10 or more sm (16+ km)
Ceiling:4800 feet AGL
Clouds: broken clouds at 4800 feet AGL
QC Flag:automated observation with no human augmentation

TAF for:KHVS (Hartsville Rgnl, SC, US)
Text:No data found